Flugplatz Düsseldorf International

Bericht für EDDL

vom 23.05. um 19:20 UTC

Wind 7 kt aus 300°

Sichtweite 10 km oder mehr

gute Sicht, keine Wolken < 5000 ft, keine CB, keine Wettererscheinungen (CAVOK)

Temperatur 18.0°C

Taupunkt 3.0°C

Luftfeuchtigkeit 37%

Luftdruck 1016 hPa

keine wesentliche Wetteränderung innerhalb den nächsten 2 Stunden zu erwarten

EDDL 231920Z 30007KT 260V330 CAVOK 18/03 Q1016 NOSIG

Prognose für EDDL

vom 23.05. um 17:00 UTC

Zwischen 18:00 UTC und 00:00 UTC

Wind 6 kt aus 250°

Sichtweite 10 km oder mehr

keine signifikanten Wettererscheinungen

keine Wolken


Zwischen 18:00 und 20:00 UTC übergehend zu

variable Windrichtung mit 3 kt

Sichtweite 10 km oder mehr

keine signifikanten Wettererscheinungen

keine Wolken


Am 24.05. zwischen 02:00 und 04:00 UTC übergehend zu

Wind 5 kt aus 160°

Sichtweite 10 km oder mehr

keine signifikanten Wettererscheinungen

keine Wolken


Am 24.05. zwischen 08:00 und 10:00 UTC übergehend zu

Wind 7 kt aus 220°

Sichtweite 10 km oder mehr

keine signifikanten Wettererscheinungen

keine Wolken


Am 24.05. zwischen 16:00 und 18:00 UTC übergehend zu

Wind 5 kt aus 330°

Sichtweite 10 km oder mehr

keine signifikanten Wettererscheinungen

keine Wolken

TAF EDDL 231700Z 2318/2424 25006KT CAVOK BECMG 2318/2320 VRB03KT BECMG 2402/2404 16005KT BECMG 2408/2410 22007KT BECMG 2416/2418 33005KT
Impressum